createdAt,value
2023-05-09T00:04:50.215Z,88.04
2023-05-09T00:07:17.781Z,88.89
2023-05-09T00:09:45.360Z,88.72
2023-05-09T00:12:12.716Z,89.56
2023-05-09T00:14:40.798Z,87.60
2023-05-09T00:17:08.270Z,87.89
2023-05-09T00:19:35.651Z,88.28
2023-05-09T00:22:02.992Z,88.36
2023-05-09T00:24:30.365Z,88.59
2023-05-09T00:26:57.694Z,88.52
2023-05-09T00:29:25.027Z,88.90
2023-05-09T00:31:52.429Z,88.75
2023-05-09T00:34:20.047Z,88.98
2023-05-09T00:36:47.377Z,89.64
2023-05-09T00:39:14.677Z,92.74
2023-05-09T00:41:42.313Z,92.50
2023-05-09T00:44:09.752Z,91.79
2023-05-09T00:46:37.184Z,92.62
2023-05-09T00:49:05.282Z,92.62
2023-05-09T00:51:33.170Z,90.54
2023-05-09T00:54:00.683Z,91.54
2023-05-09T00:56:28.390Z,92.15
2023-05-09T00:58:55.808Z,92.38
2023-05-09T01:01:23.169Z,92.29
2023-05-09T01:03:51.471Z,91.68
2023-05-09T01:06:28.032Z,92.35
2023-05-09T01:09:45.161Z,91.67
2023-05-09T01:12:37.501Z,90.77
2023-05-09T01:15:18.585Z,89.28
2023-05-09T01:18:11.710Z,88.79
2023-05-09T01:21:08.786Z,87.85
2023-05-09T01:23:45.200Z,88.00
2023-05-09T01:26:30.913Z,88.46
2023-05-09T01:29:48.185Z,87.43
2023-05-09T01:32:24.339Z,85.54
2023-05-09T01:34:56.329Z,84.92
2023-05-09T01:37:31.930Z,83.63
2023-05-09T01:40:06.226Z,83.42
2023-05-09T01:42:45.100Z,84.56
2023-05-09T01:45:15.168Z,84.91
2023-05-09T01:47:44.193Z,84.64
2023-05-09T01:50:12.794Z,84.11
2023-05-09T01:52:42.751Z,83.35
2023-05-09T01:55:11.617Z,82.72
2023-05-09T01:57:40.591Z,81.09
2023-05-09T02:00:10.259Z,79.96
2023-05-09T02:02:45.476Z,80.34
2023-05-09T02:05:15.727Z,79.47
2023-05-09T02:07:45.199Z,80.25
2023-05-09T02:10:13.238Z,79.85
2023-05-09T02:12:40.614Z,79.13
2023-05-09T02:15:08.922Z,78.99
2023-05-09T02:18:05.441Z,79.59
2023-05-09T02:20:35.961Z,80.07
2023-05-09T02:23:03.433Z,79.40
2023-05-09T02:25:32.259Z,80.39
2023-05-09T02:28:00.709Z,80.86
2023-05-09T02:30:33.483Z,80.59
2023-05-09T02:33:05.018Z,80.27
2023-05-09T02:35:32.825Z,79.30
2023-05-09T02:38:00.800Z,78.99
2023-05-09T02:40:30.344Z,77.40
2023-05-09T02:42:57.797Z,76.12
2023-05-09T02:45:25.684Z,76.64
2023-05-09T02:47:53.286Z,75.31
2023-05-09T02:50:20.644Z,74.83
2023-05-09T02:52:47.999Z,74.75
2023-05-09T02:55:15.618Z,75.21
2023-05-09T02:57:44.238Z,74.36
2023-05-09T03:00:12.299Z,74.07
2023-05-09T03:02:39.960Z,72.22
2023-05-09T03:05:13.545Z,71.08
2023-05-09T03:07:41.551Z,70.30
2023-05-09T03:10:11.458Z,70.14
2023-05-09T03:12:39.864Z,69.39
2023-05-09T03:15:07.846Z,69.83
2023-05-09T03:17:35.956Z,70.43
2023-05-09T03:20:05.598Z,69.88
2023-05-09T03:22:32.942Z,70.33
2023-05-09T03:25:04.103Z,70.39
2023-05-09T03:27:32.581Z,69.99
2023-05-09T03:30:00.520Z,71.07
2023-05-09T03:32:27.954Z,70.12
2023-05-09T03:34:55.388Z,69.62
2023-05-09T03:37:23.969Z,70.08
2023-05-09T03:39:52.432Z,70.29
2023-05-09T03:42:20.118Z,71.32
2023-05-09T03:44:49.745Z,71.72
2023-05-09T03:47:18.211Z,72.87
2023-05-09T03:49:46.332Z,72.39
2023-05-09T03:52:15.038Z,72.61
2023-05-09T03:54:43.128Z,72.92
2023-05-09T03:57:10.622Z,74.31
2023-05-09T03:59:38.670Z,75.32
2023-05-09T04:02:06.888Z,72.61
2023-05-09T04:04:34.985Z,73.24
2023-05-09T04:07:02.835Z,74.68
2023-05-09T04:09:30.494Z,72.67
2023-05-09T04:11:57.818Z,73.72
2023-05-09T04:14:27.230Z,74.07
2023-05-09T04:16:55.198Z,72.54
2023-05-09T04:19:22.571Z,70.98
2023-05-09T04:21:49.959Z,69.54
2023-05-09T04:24:17.305Z,69.57
2023-05-09T04:26:47.580Z,69.78
2023-05-09T04:29:18.524Z,70.24
2023-05-09T04:31:51.348Z,70.82
2023-05-09T04:34:19.773Z,71.02
2023-05-09T04:36:47.212Z,72.64
2023-05-09T04:39:15.030Z,69.85
2023-05-09T04:41:52.540Z,70.56
2023-05-09T04:44:20.010Z,70.92
2023-05-09T04:46:47.309Z,71.88
2023-05-09T04:49:14.679Z,72.75
2023-05-09T04:51:42.501Z,72.60
2023-05-09T04:54:09.839Z,74.29
2023-05-09T04:56:39.040Z,74.42
2023-05-09T04:59:06.575Z,74.02
2023-05-09T05:01:34.623Z,74.61
2023-05-09T05:04:02.181Z,75.47
2023-05-09T05:06:32.067Z,75.68
2023-05-09T05:09:00.099Z,77.57
2023-05-09T05:11:27.392Z,78.43
2023-05-09T05:13:55.004Z,77.56
2023-05-09T05:16:23.227Z,75.95
2023-05-09T05:18:51.427Z,73.27
2023-05-09T05:21:20.176Z,73.25
2023-05-09T05:23:47.818Z,72.71
2023-05-09T05:26:15.960Z,71.37
2023-05-09T05:28:43.376Z,70.96
2023-05-09T05:31:11.004Z,69.74
2023-05-09T05:33:38.437Z,70.58
2023-05-09T05:36:06.791Z,69.88
2023-05-09T05:38:34.354Z,69.97
2023-05-09T05:41:01.825Z,69.92
2023-05-09T05:43:31.423Z,70.26
2023-05-09T05:45:59.058Z,70.46
2023-05-09T05:48:28.482Z,69.60
2023-05-09T05:50:57.084Z,70.04
2023-05-09T05:53:27.977Z,71.42
2023-05-09T05:55:55.609Z,68.21
2023-05-09T05:58:22.985Z,67.48
2023-05-09T06:00:52.329Z,66.93
2023-05-09T06:03:20.011Z,66.57
2023-05-09T06:06:02.598Z,66.39
2023-05-09T06:08:34.362Z,66.29
2023-05-09T06:11:02.016Z,66.50
2023-05-09T06:13:29.485Z,65.65
2023-05-09T06:16:15.055Z,65.52
2023-05-09T06:18:43.060Z,65.15
2023-05-09T06:21:10.515Z,65.37
2023-05-09T06:23:42.460Z,65.66
2023-05-09T06:26:14.930Z,65.79
2023-05-09T06:28:42.369Z,65.27
2023-05-09T06:31:09.881Z,65.55
2023-05-09T06:33:37.355Z,67.07
2023-05-09T06:36:05.088Z,66.02
2023-05-09T06:38:34.030Z,65.79
2023-05-09T06:41:01.506Z,65.16
2023-05-09T06:43:28.924Z,64.90
2023-05-09T06:45:56.405Z,65.52
2023-05-09T06:48:24.128Z,66.59
2023-05-09T06:50:51.669Z,65.32
2023-05-09T06:53:19.172Z,65.09
2023-05-09T06:55:46.748Z,64.84
2023-05-09T06:58:14.802Z,63.80
2023-05-09T07:00:42.159Z,63.66
2023-05-09T07:03:10.638Z,63.53
2023-05-09T07:05:37.993Z,63.74
2023-05-09T07:08:05.535Z,63.13
2023-05-09T07:10:33.177Z,63.25
2023-05-09T07:13:00.580Z,62.46
2023-05-09T07:15:40.394Z,61.31
2023-05-09T07:18:09.541Z,61.32
2023-05-09T07:20:37.115Z,61.40
2023-05-09T07:23:05.365Z,61.53
2023-05-09T07:25:32.978Z,61.02
2023-05-09T07:28:01.072Z,60.92
2023-05-09T07:30:28.562Z,61.86
2023-05-09T07:32:56.094Z,61.33
2023-05-09T07:35:23.658Z,61.09
2023-05-09T07:37:51.278Z,61.19
2023-05-09T07:40:19.104Z,60.52
2023-05-09T07:42:49.928Z,60.75
2023-05-09T07:45:18.782Z,60.24
2023-05-09T07:47:47.398Z,61.73
2023-05-09T07:50:14.939Z,61.71
2023-05-09T07:52:42.339Z,60.56
2023-05-09T07:55:09.972Z,60.03
2023-05-09T07:57:38.688Z,59.92
2023-05-09T08:00:07.585Z,59.94
2023-05-09T08:02:41.102Z,60.20
2023-05-09T08:05:11.499Z,61.27
2023-05-09T08:08:04.947Z,60.46
2023-05-09T08:14:15.724Z,60.65
2023-05-09T08:16:43.486Z,60.24
2023-05-09T08:19:10.992Z,60.38
2023-05-09T08:21:38.422Z,60.57
2023-05-09T08:24:08.140Z,60.36
2023-05-09T08:26:35.943Z,61.22
2023-05-09T08:29:29.872Z,62.37
2023-05-09T08:31:57.275Z,61.76
2023-05-09T08:34:24.765Z,58.69
2023-05-09T08:36:52.156Z,59.32
2023-05-09T08:39:19.562Z,58.89
2023-05-09T08:41:47.115Z,57.68
2023-05-09T08:44:14.757Z,57.64
2023-05-09T08:46:44.409Z,57.95
2023-05-09T08:49:12.188Z,57.85
2023-05-09T08:51:40.363Z,58.00
2023-05-09T08:54:07.983Z,57.09
2023-05-09T08:56:36.035Z,56.89
2023-05-09T08:59:05.842Z,56.08
2023-05-09T09:01:35.978Z,56.50
2023-05-09T09:04:07.240Z,55.80
2023-05-09T09:06:35.898Z,57.01
2023-05-09T09:09:09.131Z,57.32
2023-05-09T09:11:38.858Z,57.32
2023-05-09T09:14:13.906Z,56.57
2023-05-09T09:16:44.764Z,57.60
2023-05-09T09:19:16.721Z,57.31
2023-05-09T09:21:47.291Z,56.79
2023-05-09T09:24:21.471Z,58.08
2023-05-09T09:26:51.093Z,57.50
2023-05-09T09:29:20.655Z,56.97
2023-05-09T09:31:52.318Z,55.52
2023-05-09T09:34:22.466Z,53.54
2023-05-09T09:36:50.990Z,54.14
2023-05-09T09:39:18.337Z,54.37
2023-05-09T09:41:45.906Z,56.28
2023-05-09T09:44:18.212Z,56.36
2023-05-09T09:46:51.223Z,56.41
2023-05-09T09:49:20.817Z,56.57
2023-05-09T09:51:54.098Z,54.78
2023-05-09T09:54:21.876Z,55.52
2023-05-09T09:56:51.812Z,55.56
2023-05-09T09:59:29.116Z,54.90
2023-05-09T10:01:57.972Z,52.40
2023-05-09T10:04:31.054Z,51.36
2023-05-09T10:07:00.568Z,50.16
2023-05-09T10:09:28.287Z,50.63
2023-05-09T10:11:56.759Z,50.75
2023-05-09T10:14:26.290Z,51.46
2023-05-09T10:16:57.597Z,51.89
2023-05-09T10:19:27.217Z,52.60
2023-05-09T10:21:59.713Z,51.61
2023-05-09T10:24:48.534Z,51.32
2023-05-09T10:27:21.740Z,51.51
2023-05-09T10:30:08.556Z,50.47
2023-05-09T10:32:55.596Z,50.62
2023-05-09T10:35:28.050Z,51.27
2023-05-09T10:38:01.992Z,51.12
2023-05-09T10:40:32.400Z,50.53
2023-05-09T10:42:59.929Z,50.79
2023-05-09T10:45:27.547Z,51.30
2023-05-09T10:47:56.819Z,51.53
2023-05-09T10:50:25.035Z,49.80
2023-05-09T10:53:04.265Z,50.41
2023-05-09T10:55:48.128Z,51.47
2023-05-09T10:58:23.968Z,49.78
2023-05-09T11:00:54.230Z,48.85
2023-05-09T11:03:24.859Z,49.91
2023-05-09T11:05:55.437Z,50.29
2023-05-09T11:08:28.254Z,50.80
2023-05-09T11:10:57.459Z,50.92
2023-05-09T11:13:26.228Z,50.27
2023-05-09T11:15:53.544Z,51.27
2023-05-09T11:18:50.849Z,52.86
2023-05-09T11:21:20.388Z,51.80
2023-05-09T11:23:48.548Z,51.30
2023-05-09T11:26:16.674Z,51.42
2023-05-09T11:28:53.475Z,52.52
2023-05-09T11:31:21.030Z,52.64
2023-05-09T11:33:55.114Z,51.94
2023-05-09T11:36:33.696Z,52.68
2023-05-09T11:39:11.504Z,52.15
2023-05-09T11:41:48.882Z,52.81
2023-05-09T11:44:18.309Z,53.01
2023-05-09T11:46:46.890Z,52.65
2023-05-09T11:49:14.929Z,51.80
2023-05-09T11:51:42.613Z,51.31
2023-05-09T11:54:12.001Z,51.55
2023-05-09T11:56:42.049Z,51.27
2023-05-09T11:59:10.595Z,52.40
2023-05-09T12:01:38.026Z,52.16
2023-05-09T12:04:08.025Z,51.38
2023-05-09T12:06:35.413Z,49.89
2023-05-09T12:09:02.948Z,51.21
2023-05-09T12:11:32.480Z,51.32
2023-05-09T12:13:59.997Z,52.21
2023-05-09T12:16:27.382Z,51.60
2023-05-09T12:18:54.897Z,52.55
2023-05-09T12:21:22.446Z,52.65
2023-05-09T12:23:51.749Z,54.45
2023-05-09T12:26:22.561Z,53.58
2023-05-09T12:28:50.554Z,52.94
2023-05-09T12:31:18.583Z,51.82
2023-05-09T12:33:46.161Z,51.94
2023-05-09T12:36:13.835Z,52.79
2023-05-09T12:38:42.016Z,51.67
2023-05-09T12:41:22.386Z,52.55
2023-05-09T12:43:58.497Z,51.78
2023-05-09T12:46:25.982Z,51.56
2023-05-09T12:48:53.970Z,52.56
2023-05-09T12:51:22.212Z,52.29
2023-05-09T12:53:49.851Z,51.18
2023-05-09T12:56:19.177Z,51.59
2023-05-09T12:58:54.450Z,51.50
2023-05-09T13:01:27.389Z,51.68
2023-05-09T13:04:05.929Z,50.19
2023-05-09T13:06:34.385Z,51.43
2023-05-09T13:09:05.752Z,51.26
2023-05-09T13:11:33.425Z,52.01
2023-05-09T13:14:02.378Z,51.24
2023-05-09T13:16:29.720Z,51.46
2023-05-09T13:18:57.209Z,51.76
2023-05-09T13:21:24.581Z,50.99
2023-05-09T13:23:52.212Z,52.09
2023-05-09T13:26:19.853Z,51.66
2023-05-09T13:28:47.186Z,51.66
2023-05-09T13:31:14.729Z,51.77
2023-05-09T13:33:42.066Z,50.66
2023-05-09T13:36:09.563Z,51.12
2023-05-09T13:38:40.433Z,50.61
2023-05-09T13:41:08.625Z,49.92
2023-05-09T13:43:37.261Z,49.72
2023-05-09T13:46:05.014Z,50.23
2023-05-09T13:48:32.423Z,50.97
2023-05-09T13:51:01.160Z,52.56
2023-05-09T13:53:28.546Z,51.91
2023-05-09T13:55:55.938Z,52.01
2023-05-09T13:58:23.388Z,52.50
2023-05-09T14:00:50.722Z,52.87
2023-05-09T14:03:18.077Z,51.82
2023-05-09T14:05:45.499Z,51.52
2023-05-09T14:08:12.945Z,51.56
2023-05-09T14:10:40.271Z,51.13
2023-05-09T14:13:08.450Z,51.41
2023-05-09T14:15:35.961Z,52.09
2023-05-09T14:18:03.531Z,52.12
2023-05-09T14:20:30.968Z,52.83
2023-05-09T14:23:00.661Z,52.35
2023-05-09T14:25:28.046Z,52.12
2023-05-09T14:27:55.386Z,51.94
2023-05-09T14:30:22.987Z,52.70
2023-05-09T14:32:50.870Z,53.65
2023-05-09T14:35:18.505Z,52.54
2023-05-09T14:37:45.932Z,52.22
2023-05-09T14:40:13.515Z,52.79
2023-05-09T14:42:41.273Z,52.41
2023-05-09T14:45:12.019Z,52.09
2023-05-09T14:47:39.508Z,52.61
2023-05-09T14:50:10.061Z,52.90
2023-05-09T14:52:38.359Z,52.74
2023-05-09T14:55:07.392Z,52.51
2023-05-09T14:57:34.766Z,52.45
2023-05-09T15:02:32.444Z,54.20
2023-05-09T15:04:59.753Z,53.57
2023-05-09T15:07:27.084Z,53.70
2023-05-09T15:09:54.631Z,54.14
2023-05-09T15:12:22.103Z,54.22
2023-05-09T15:14:53.724Z,54.15
2023-05-09T15:17:22.576Z,54.09
2023-05-09T15:19:49.943Z,53.27
2023-05-09T15:22:17.275Z,53.19
2023-05-09T15:24:44.806Z,53.32
2023-05-09T15:27:12.115Z,53.66
2023-05-09T15:29:41.107Z,55.28
2023-05-09T15:32:08.526Z,54.87
2023-05-09T15:34:36.004Z,53.82
2023-05-09T15:37:03.411Z,54.00
2023-05-09T15:39:34.899Z,54.05
2023-05-09T15:42:04.305Z,53.40
2023-05-09T15:44:31.532Z,54.30
2023-05-09T15:46:58.941Z,53.06
2023-05-09T15:49:26.241Z,53.93
2023-05-09T15:51:53.611Z,54.71
2023-05-09T15:54:21.006Z,53.98
2023-05-09T15:56:48.361Z,52.70
2023-05-09T15:59:15.643Z,53.23
2023-05-09T16:01:43.134Z,53.90
2023-05-09T16:04:10.981Z,54.41
2023-05-09T16:06:38.391Z,53.59
2023-05-09T16:09:06.806Z,53.47
2023-05-09T16:11:34.227Z,54.42
2023-05-09T16:14:01.944Z,54.80
2023-05-09T16:16:29.936Z,54.85
2023-05-09T16:19:07.569Z,55.80
2023-05-09T16:21:39.445Z,56.18
2023-05-09T16:24:08.118Z,55.47
2023-05-09T16:26:36.697Z,55.76
2023-05-09T16:29:04.227Z,56.79
2023-05-09T16:31:34.826Z,55.48
2023-05-09T16:34:03.009Z,55.57
2023-05-09T16:36:32.651Z,54.75
2023-05-09T16:39:00.102Z,54.66
2023-05-09T16:41:27.483Z,54.77
2023-05-09T16:43:54.861Z,55.19
2023-05-09T16:46:22.461Z,55.23
2023-05-09T16:48:52.836Z,55.16
2023-05-09T16:51:20.235Z,55.03
2023-05-09T16:53:47.600Z,55.60
2023-05-09T16:56:15.115Z,55.64
2023-05-09T16:58:44.787Z,55.86
2023-05-09T17:01:12.423Z,55.51
2023-05-09T17:03:40.093Z,55.76
2023-05-09T17:06:07.660Z,55.15
2023-05-09T17:08:35.223Z,55.31
2023-05-09T17:11:02.624Z,56.19
2023-05-09T17:13:30.116Z,56.91
2023-05-09T17:15:57.733Z,56.75
2023-05-09T17:18:35.992Z,57.36
2023-05-09T17:21:05.277Z,56.70
2023-05-09T17:23:32.761Z,57.24
2023-05-09T17:26:00.828Z,57.04
2023-05-09T17:28:28.769Z,57.02
2023-05-09T17:30:57.602Z,57.29
2023-05-09T17:33:28.837Z,56.79
2023-05-09T17:35:57.454Z,56.63
2023-05-09T17:38:24.994Z,56.91
2023-05-09T17:40:52.734Z,57.21
2023-05-09T17:43:21.672Z,57.24
2023-05-09T17:45:51.395Z,57.72
2023-05-09T17:48:18.977Z,57.55
2023-05-09T17:50:46.342Z,57.77
2023-05-09T17:53:14.029Z,57.92
2023-05-09T17:55:41.716Z,57.90
2023-05-09T17:58:09.564Z,57.16
2023-05-09T18:00:37.603Z,57.58
2023-05-09T18:03:05.355Z,57.18
2023-05-09T18:05:32.916Z,57.35
2023-05-09T18:08:01.306Z,57.71
2023-05-09T18:10:29.780Z,58.08
2023-05-09T18:12:57.287Z,58.51
2023-05-09T18:15:26.289Z,58.44
2023-05-09T18:17:54.891Z,58.47
2023-05-09T18:20:22.444Z,58.35
2023-05-09T18:22:49.863Z,57.32
2023-05-09T18:25:17.396Z,56.22
2023-05-09T18:27:45.026Z,55.62
2023-05-09T18:30:12.828Z,53.67
2023-05-09T18:32:40.896Z,52.81
2023-05-09T18:35:08.836Z,52.31
2023-05-09T18:37:36.923Z,53.03
2023-05-09T18:40:05.449Z,51.86
2023-05-09T18:42:32.810Z,51.71
2023-05-09T18:45:00.951Z,52.26
2023-05-09T18:47:28.362Z,52.01
2023-05-09T18:49:55.664Z,52.17
2023-05-09T18:52:23.179Z,52.02
2023-05-09T18:54:50.517Z,51.98
2023-05-09T18:57:19.207Z,52.11
2023-05-09T18:59:46.701Z,52.44
2023-05-09T19:02:14.075Z,52.25
2023-05-09T19:04:41.431Z,52.68
2023-05-09T19:07:10.095Z,52.88
2023-05-09T19:09:37.582Z,52.97
2023-05-09T19:12:05.796Z,53.31
2023-05-09T19:14:33.119Z,53.41
2023-05-09T19:17:00.537Z,54.01
2023-05-09T19:19:28.661Z,54.39
2023-05-09T19:21:56.121Z,54.65
2023-05-09T19:24:23.450Z,55.04
2023-05-09T19:26:50.913Z,55.06
2023-05-09T19:29:18.428Z,55.58
2023-05-09T19:31:45.740Z,55.61
2023-05-09T19:34:13.571Z,55.47
2023-05-09T19:36:41.117Z,55.92
2023-05-09T19:39:09.059Z,56.10
2023-05-09T19:41:36.550Z,56.67
2023-05-09T19:44:04.110Z,56.79
2023-05-09T19:46:31.433Z,56.92
2023-05-09T19:48:58.886Z,57.22
2023-05-09T19:51:26.193Z,57.36
2023-05-09T19:53:53.513Z,57.57
2023-05-09T19:56:23.200Z,57.71
2023-05-09T19:58:50.635Z,57.81
2023-05-09T20:01:19.085Z,57.99
2023-05-09T20:03:47.153Z,58.73
2023-05-09T20:06:14.573Z,59.11
2023-05-09T20:08:41.886Z,59.69
2023-05-09T20:11:09.091Z,59.74
2023-05-09T20:13:36.344Z,59.97
2023-05-09T20:16:04.170Z,60.73
2023-05-09T20:18:34.545Z,59.77
2023-05-09T20:21:02.373Z,59.49
2023-05-09T20:23:30.118Z,60.36
2023-05-09T20:25:57.490Z,61.20
2023-05-09T20:28:25.193Z,61.33
2023-05-09T20:30:52.493Z,62.56
2023-05-09T20:33:19.856Z,62.95
2023-05-09T20:35:49.194Z,63.64
2023-05-09T20:38:16.728Z,64.43
2023-05-09T20:40:44.175Z,64.77
2023-05-09T20:43:11.657Z,65.51
2023-05-09T20:45:39.071Z,63.86
2023-05-09T20:48:06.681Z,64.93
2023-05-09T20:50:34.031Z,65.55
2023-05-09T20:53:01.377Z,66.33
2023-05-09T20:55:28.771Z,66.69
2023-05-09T20:57:56.128Z,66.21
2023-05-09T21:00:23.418Z,63.60
2023-05-09T21:02:50.941Z,63.95
2023-05-09T21:05:18.856Z,64.06
2023-05-09T21:07:46.113Z,65.65
2023-05-09T21:10:13.632Z,65.33
2023-05-09T21:12:45.048Z,67.24
2023-05-09T21:15:12.504Z,66.57
2023-05-09T21:17:39.893Z,67.84
2023-05-09T21:20:08.464Z,68.89
2023-05-09T21:22:35.696Z,68.46
2023-05-09T21:25:02.984Z,69.50
2023-05-09T21:27:31.365Z,68.43
2023-05-09T21:29:58.794Z,68.59
2023-05-09T21:32:26.145Z,68.84
2023-05-09T21:34:53.725Z,68.40
2023-05-09T21:37:21.042Z,69.28
2023-05-09T21:39:48.320Z,70.98
2023-05-09T21:42:15.811Z,71.01
2023-05-09T21:44:43.128Z,71.66
2023-05-09T21:47:11.634Z,72.73
2023-05-09T21:49:38.963Z,73.70
2023-05-09T21:52:06.311Z,73.98
2023-05-09T21:54:33.648Z,74.74
2023-05-09T21:57:00.891Z,74.32
2023-05-09T21:59:28.108Z,73.32
2023-05-09T22:01:55.363Z,72.73
2023-05-09T22:04:22.648Z,74.32
2023-05-09T22:06:49.854Z,74.00
2023-05-09T22:09:17.362Z,74.80
2023-05-09T22:11:44.622Z,74.19
2023-05-09T22:14:12.394Z,74.70
2023-05-09T22:16:39.767Z,74.00
2023-05-09T22:19:07.076Z,74.86
2023-05-09T22:21:34.471Z,75.27
2023-05-09T22:24:01.815Z,74.56
2023-05-09T22:26:29.152Z,74.48
2023-05-09T22:28:56.391Z,74.38
2023-05-09T22:31:23.703Z,75.04
2023-05-09T22:33:51.228Z,74.73
2023-05-09T22:36:18.590Z,73.98
2023-05-09T22:38:46.079Z,73.19
2023-05-09T22:41:14.169Z,74.39
2023-05-09T22:43:41.625Z,72.56
2023-05-09T22:46:09.037Z,73.51
2023-05-09T22:48:36.496Z,71.30
2023-05-09T22:51:03.945Z,71.90
2023-05-09T22:53:31.385Z,71.60
2023-05-09T22:55:58.793Z,72.22
2023-05-09T22:58:26.485Z,71.41
2023-05-09T23:00:53.931Z,72.38
2023-05-09T23:03:21.756Z,72.01
2023-05-09T23:05:49.175Z,72.97
2023-05-09T23:08:16.600Z,71.88
2023-05-09T23:10:44.102Z,71.36
2023-05-09T23:13:12.333Z,71.50
2023-05-09T23:15:39.809Z,70.51
2023-05-09T23:18:07.264Z,69.67
2023-05-09T23:20:36.063Z,69.65
2023-05-09T23:23:03.673Z,68.38
2023-05-09T23:25:30.981Z,68.40
2023-05-09T23:27:58.438Z,67.41
2023-05-09T23:30:25.747Z,66.42
2023-05-09T23:32:53.160Z,64.90
2023-05-09T23:35:21.278Z,64.46
2023-05-09T23:37:48.692Z,64.78
2023-05-09T23:40:16.150Z,64.91
2023-05-09T23:42:43.747Z,65.84
2023-05-09T23:45:11.325Z,65.74
2023-05-09T23:47:38.733Z,65.69
2023-05-09T23:50:06.906Z,64.66
2023-05-09T23:52:34.229Z,65.20
2023-05-09T23:55:01.752Z,65.19
2023-05-09T23:57:29.226Z,65.96
2023-05-09T23:59:56.540Z,65.88
